Beecher City, IL (62414)

1:11 AM CDT on August 21, 2014 (GMT -0500)
St. Elmo, Ilinois | Change Station
CLOSE
Current Station
Personal Weather Station
Location: St. Elmo, IL
Elevation: 620 ft
Nearby Weather Stations
Active Advisory: Special Statement

Elev 620 ft 39.02 °N, 88.83 °W | Updated 13 minutes ago

Scattered Clouds
Scattered Clouds
70.0 °F
Feels Like 70.0 °F
N
5.0
Wind Variable Wind from South
Gusts 6.0 mph

Today
High -- | Low -- °F
--% Chance of Precip.
Yesterday
High -- | Low -- °F
Precip. -- in
6:13 AM 7:42 PM
Waning Crescent, 16% visible
Pressure 30.00 in
Visibility 10.0 miles
Clouds Scattered Clouds 10000 ft
Dew Point 69 °F
Humidity 96%
Rainfall 0.35 in
Snow Depth Not available.
UV 0 out of 12
Pollen 9.60 out of 12
Air Quality Not available.
Flu Activity Not available.
METAR K1H2 210530Z AUTO 21007G14KT 10SM SCT100 23/18 A3000 RMK AO2 LTG DSNT SE THRU SW T02270177

More Conditions Fewer Conditions

Pressure 30.00 in
Visibility 10.0 miles
Clouds Scattered Clouds 10000 ft
Dew Point 69 °F
Humidity 96%
Rainfall 0.35 in
Snow Depth Not available.
UV 0 out of 12
Pollen 9.60 out of 12
Air Quality Not available.
Flu Activity Not available.
METAR K1H2 210530Z AUTO 21007G14KT 10SM SCT100 23/18 A3000 RMK AO2 LTG DSNT SE THRU SW T02270177

More Conditions Fewer Conditions

10-Day Weather Forecast

Almanac

Astronomy

Aug. 21, 2014 Rise Set
Actual Time 6:13 AM CDT 7:42 PM CDT
Civil Twilight 5:45 AM CDT 8:10 PM CDT
Nautical Twilight 5:11 AM CDT 8:44 PM CDT
Astronomical Twilight 4:36 AM CDT 9:19 PM CDT
Moon 2:44 AM CDT 5:10 PM CDT
Length of Visible Light 14h 24m
Length of Day
13h 28m
Tomorrow will be 2m 20s shorter.
Waning Crescent, 16% of the Moon is Illuminated
Today
Waning Crescent
Aug 25
New
Sep 2
First Quarter
Sep 8
Full
Sep 15
Last Quarter

Today's Extremes

State Highs State Lows

Community

WunderPhotos

Upload Photos

1,745,858 photos uploaded!

Nearby

Snow Depth

Station Depth Elevation
No new snow has been reported.

Earthquake Activity

City Distance Mag. Time & Date
No recent earthquake activity has been reported nearby.
Minimum magnitude displayed is 2.5.

Coastal Water Temperatures

Place Temperature
No Stations Reporting

Nearby Weather Stations